This is the latest recevied weather packets stored in our database for station/object DB8NZ-11. If no packets are shown the sender has not sent any weather packets the latest 10 day(s).
| Time | Temp. | Humidity | Pressure | Rain* | Wind** | Luminosity | Snow |
|---|---|---|---|---|---|---|---|
| 1777441953 | 8.89° C | 44% | 1028.6 hPa | - | - | - | - |
| 1777441053 | 7.22° C | 48% | 1028.5 hPa | - | - | - | - |
| 1777440153 | 6.67° C | 52% | 1028.4 hPa | - | - | - | - |
| 1777439253 | 6.11° C | 51% | 1028.4 hPa | - | - | - | - |
| 1777438353 | 6.11° C | 50% | 1028.3 hPa | - | - | - | - |
| 1777437452 | 6.11° C | 50% | 1028.1 hPa | - | - | - | - |
| 1777436552 | 6.11° C | 49% | 1028.1 hPa | - | - | - | - |
| 1777435652 | 6.11° C | 48% | 1027.9 hPa | - | - | - | - |
| 1777434752 | 6.11° C | 48% | 1027.8 hPa | - | - | - | - |
| 1777433852 | 6.67° C | 46% | 1027.7 hPa | - | - | - | - |
| 1777432952 | 6.67° C | 46% | 1027.5 hPa | - | - | - | - |
| 1777432052 | 7.22° C | 45% | 1027.5 hPa | - | - | - | - |
| 1777431152 | 7.22° C | 44% | 1027.3 hPa | - | - | - | - |
| 1777430252 | 7.22° C | 44% | 1027.3 hPa | - | - | - | - |
| 1777429352 | 6.67° C | 45% | 1027.1 hPa | - | - | - | - |
| 1777428451 | 6.67° C | 48% | 1027 hPa | - | - | - | - |
| 1777427551 | 7.22° C | 48% | 1027.1 hPa | - | - | - | - |
| 1777427261 | 7.22° C | 46% | 1027 hPa | - | - | - | - |
| 1777426361 | 7.22° C | 49% | 1026.9 hPa | - | - | - | - |
| 1777425461 | 7.22° C | 47% | 1026.9 hPa | - | - | - | - |
| 1777424561 | 7.78° C | 45% | 1027 hPa | - | - | - | - |
| 1777423661 | 8.33° C | 44% | 1026.9 hPa | - | - | - | - |
| 1777422761 | 8.89° C | 40% | 1027 hPa | - | - | - | - |
| 1777420961 | 9.44° C | 40% | 1027 hPa | - | - | - | - |
| 1777420061 | 9.44° C | 42% | 1027 hPa | - | - | - | - |
* Rain since midnight (hover to see other rain measurements)
** Current wind speed in m/s (hover to see current wind gust speed)